createdAt,value
2022-08-30T00:00:01.346Z,24.80
2022-08-30T00:02:29.763Z,24.70
2022-08-30T00:05:01.570Z,24.70
2022-08-30T00:07:30.818Z,24.80
2022-08-30T00:10:00.844Z,24.80
2022-08-30T00:12:29.629Z,24.80
2022-08-30T00:14:58.277Z,24.70
2022-08-30T00:17:26.594Z,24.80
2022-08-30T00:19:56.225Z,24.70
2022-08-30T00:22:24.633Z,24.70
2022-08-30T00:24:53.045Z,24.70
2022-08-30T00:27:22.736Z,24.70
2022-08-30T00:29:51.407Z,24.70
2022-08-30T00:32:21.418Z,24.70
2022-08-30T00:34:49.977Z,24.70
2022-08-30T00:37:18.986Z,24.70
2022-08-30T00:39:47.881Z,24.70
2022-08-30T00:42:17.565Z,24.70
2022-08-30T00:44:47.438Z,24.70
2022-08-30T00:47:16.180Z,24.70
2022-08-30T00:49:49.055Z,24.70
2022-08-30T00:52:19.571Z,24.70
2022-08-30T00:54:49.164Z,24.70
2022-08-30T00:57:17.745Z,24.70
2022-08-30T00:59:50.625Z,24.70
2022-08-30T01:02:21.117Z,24.70
2022-08-30T01:04:51.576Z,24.70
2022-08-30T01:07:20.169Z,24.70
2022-08-30T01:09:48.607Z,24.70
2022-08-30T01:12:17.453Z,24.70
2022-08-30T01:14:48.580Z,24.70
2022-08-30T01:17:18.033Z,24.70
2022-08-30T01:19:55.138Z,24.70
2022-08-30T01:22:29.612Z,24.70
2022-08-30T01:25:01.387Z,24.70
2022-08-30T01:27:31.967Z,24.70
2022-08-30T01:30:00.504Z,24.70
2022-08-30T01:32:30.429Z,24.70
2022-08-30T01:34:59.212Z,24.70
2022-08-30T01:37:31.443Z,24.70
2022-08-30T01:40:01.723Z,24.70
2022-08-30T01:42:30.097Z,24.70
2022-08-30T01:45:18.238Z,24.70
2022-08-30T01:47:46.571Z,24.70
2022-08-30T01:50:15.241Z,24.70
2022-08-30T01:52:43.896Z,24.70
2022-08-30T01:55:13.645Z,24.70
2022-08-30T01:57:42.220Z,24.70
2022-08-30T02:00:12.537Z,24.70
2022-08-30T02:02:41.427Z,24.60
2022-08-30T02:05:10.225Z,24.60
2022-08-30T02:07:38.595Z,24.60
2022-08-30T02:10:07.832Z,24.60
2022-08-30T02:12:37.549Z,24.60
2022-08-30T02:15:06.682Z,24.60
2022-08-30T02:17:34.976Z,24.60
2022-08-30T02:20:03.572Z,24.60
2022-08-30T02:22:31.965Z,24.60
2022-08-30T02:25:01.036Z,24.60
2022-08-30T02:27:29.545Z,24.60
2022-08-30T02:29:59.347Z,24.60
2022-08-30T02:32:27.687Z,24.60
2022-08-30T02:34:56.031Z,24.60
2022-08-30T02:37:24.392Z,24.60
2022-08-30T02:39:52.807Z,24.50
2022-08-30T02:42:21.235Z,24.60
2022-08-30T02:44:49.612Z,24.60
2022-08-30T02:47:19.365Z,24.50
2022-08-30T02:49:47.717Z,24.60
2022-08-30T02:52:16.193Z,24.60
2022-08-30T02:54:44.567Z,24.50
2022-08-30T02:57:20.086Z,24.50
2022-08-30T02:59:49.026Z,24.50
2022-08-30T03:02:19.342Z,24.50
2022-08-30T03:04:47.964Z,24.50
2022-08-30T03:07:17.004Z,24.50
2022-08-30T03:09:45.485Z,24.50
2022-08-30T03:12:13.884Z,24.50
2022-08-30T03:14:42.234Z,24.50
2022-08-30T03:17:15.677Z,24.50
2022-08-30T03:19:46.609Z,24.50
2022-08-30T03:22:15.140Z,24.50
2022-08-30T03:24:43.511Z,24.50
2022-08-30T03:27:11.855Z,24.50
2022-08-30T03:29:40.275Z,24.50
2022-08-30T03:32:08.631Z,24.50
2022-08-30T03:34:37.165Z,24.50
2022-08-30T03:37:07.023Z,24.50
2022-08-30T03:39:35.708Z,24.50
2022-08-30T03:42:04.722Z,24.50
2022-08-30T03:44:33.467Z,24.50
2022-08-30T03:47:01.848Z,24.50
2022-08-30T03:49:30.235Z,24.40
2022-08-30T03:51:58.661Z,24.50
2022-08-30T03:54:28.370Z,24.50
2022-08-30T03:56:57.243Z,24.40
2022-08-30T03:59:25.840Z,24.40
2022-08-30T04:01:54.599Z,24.40
2022-08-30T04:04:23.044Z,24.40
2022-08-30T04:06:51.520Z,24.40
2022-08-30T04:09:20.601Z,24.40
2022-08-30T04:11:50.927Z,24.40
2022-08-30T04:14:19.815Z,24.40
2022-08-30T04:16:48.246Z,24.40
2022-08-30T04:19:16.828Z,24.40
2022-08-30T04:21:48.369Z,24.40
2022-08-30T04:24:16.956Z,24.40
2022-08-30T04:26:45.350Z,24.40
2022-08-30T04:29:16.884Z,24.40
2022-08-30T04:31:45.676Z,24.40
2022-08-30T04:34:15.295Z,24.40
2022-08-30T04:36:48.322Z,24.40
2022-08-30T04:39:16.972Z,24.30
2022-08-30T04:41:45.372Z,24.30
2022-08-30T04:44:19.421Z,24.40
2022-08-30T04:46:48.250Z,24.30
2022-08-30T04:49:16.932Z,24.30
2022-08-30T04:51:45.274Z,24.30
2022-08-30T04:54:13.771Z,24.30
2022-08-30T04:56:42.642Z,24.30
2022-08-30T04:59:11.126Z,24.30
2022-08-30T05:01:45.435Z,24.30
2022-08-30T05:04:14.806Z,24.30
2022-08-30T05:06:43.816Z,24.30
2022-08-30T05:09:12.276Z,24.30
2022-08-30T05:11:40.604Z,24.30
2022-08-30T05:14:09.066Z,24.30
2022-08-30T05:16:37.550Z,24.30
2022-08-30T05:19:08.033Z,24.30
2022-08-30T05:21:36.898Z,24.30
2022-08-30T05:24:05.403Z,24.30
2022-08-30T05:26:35.185Z,24.30
2022-08-30T05:29:03.642Z,24.30
2022-08-30T05:31:35.299Z,24.30
2022-08-30T05:34:04.474Z,24.30
2022-08-30T05:36:37.952Z,24.30
2022-08-30T05:39:07.065Z,24.20
2022-08-30T05:41:38.270Z,24.20
2022-08-30T05:44:09.471Z,24.20
2022-08-30T05:46:39.675Z,24.30
2022-08-30T05:49:09.691Z,24.20
2022-08-30T05:51:43.324Z,24.20
2022-08-30T05:54:13.025Z,24.20
2022-08-30T05:56:42.841Z,24.20
2022-08-30T05:59:11.160Z,24.20
2022-08-30T06:01:41.585Z,24.20
2022-08-30T06:04:12.591Z,24.20
2022-08-30T06:06:44.237Z,24.20
2022-08-30T06:09:14.804Z,24.20
2022-08-30T06:11:43.688Z,24.20
2022-08-30T06:14:12.100Z,24.20
2022-08-30T06:16:41.492Z,24.20
2022-08-30T06:19:11.072Z,24.20
2022-08-30T06:21:42.416Z,24.10
2022-08-30T06:24:12.572Z,24.20
2022-08-30T06:26:43.680Z,24.10
2022-08-30T06:29:13.700Z,24.10
2022-08-30T06:31:42.753Z,24.10
2022-08-30T06:34:11.405Z,24.10
2022-08-30T06:36:40.155Z,24.10
2022-08-30T06:39:10.063Z,24.10
2022-08-30T06:41:40.113Z,24.10
2022-08-30T06:44:18.692Z,24.10
2022-08-30T06:46:47.990Z,24.10
2022-08-30T06:49:17.267Z,24.10
2022-08-30T06:51:45.630Z,24.10
2022-08-30T06:54:17.945Z,24.10
2022-08-30T06:56:58.093Z,24.10
2022-08-30T06:59:27.752Z,24.10
2022-08-30T07:01:57.602Z,24.10
2022-08-30T07:04:26.468Z,24.10
2022-08-30T07:06:54.842Z,24.10
2022-08-30T07:09:24.645Z,24.10
2022-08-30T07:11:53.980Z,24.10
2022-08-30T07:14:23.448Z,24.10
2022-08-30T07:16:51.990Z,24.10
2022-08-30T07:19:21.310Z,24.10
2022-08-30T07:21:50.380Z,24.10
2022-08-30T07:24:19.401Z,24.10
2022-08-30T07:26:52.340Z,24.20
2022-08-30T07:29:21.197Z,24.20
2022-08-30T07:31:49.606Z,24.20
2022-08-30T07:34:19.281Z,24.10
2022-08-30T07:36:48.878Z,24.10
2022-08-30T07:39:17.123Z,24.10
2022-08-30T07:41:50.923Z,24.10
2022-08-30T07:44:19.400Z,24.10
2022-08-30T07:46:51.721Z,24.10
2022-08-30T07:49:20.653Z,24.10
2022-08-30T07:51:49.104Z,24.10
2022-08-30T07:54:17.445Z,24.10
2022-08-30T07:56:45.834Z,24.10
2022-08-30T07:59:15.645Z,24.10
2022-08-30T08:01:44.087Z,24.10
2022-08-30T08:04:12.522Z,24.10
2022-08-30T08:06:41.268Z,24.00
2022-08-30T08:09:10.359Z,24.00
2022-08-30T08:11:39.861Z,24.00
2022-08-30T08:14:08.807Z,24.00
2022-08-30T08:16:39.776Z,24.00
2022-08-30T08:19:09.362Z,24.00
2022-08-30T08:21:38.624Z,24.00
2022-08-30T08:24:07.519Z,24.00
2022-08-30T08:26:37.108Z,24.00
2022-08-30T08:29:06.444Z,24.00
2022-08-30T08:31:34.883Z,24.00
2022-08-30T08:34:06.023Z,24.00
2022-08-30T08:36:35.469Z,24.00
2022-08-30T08:39:05.032Z,24.00
2022-08-30T08:41:42.522Z,24.00
2022-08-30T08:44:18.704Z,24.00
2022-08-30T08:46:55.979Z,24.00
2022-08-30T08:49:26.389Z,24.00
2022-08-30T08:52:13.822Z,24.00
2022-08-30T08:54:50.037Z,24.00
2022-08-30T08:57:22.671Z,24.00
2022-08-30T08:59:54.585Z,24.00
2022-08-30T09:02:27.145Z,24.00
2022-08-30T09:05:01.092Z,24.00
2022-08-30T09:07:34.047Z,24.00
2022-08-30T09:10:02.629Z,24.00
2022-08-30T09:12:31.313Z,24.00
2022-08-30T09:15:04.994Z,24.00
2022-08-30T09:17:52.235Z,24.00
2022-08-30T09:20:32.821Z,24.00
2022-08-30T09:23:12.766Z,24.00
2022-08-30T09:25:52.749Z,24.00
2022-08-30T09:28:24.698Z,24.00
2022-08-30T09:31:21.109Z,24.00
2022-08-30T09:34:16.812Z,24.00
2022-08-30T09:37:05.093Z,24.00
2022-08-30T09:39:39.372Z,24.00
2022-08-30T09:42:15.652Z,24.00
2022-08-30T09:44:44.036Z,24.00
2022-08-30T09:47:24.244Z,24.00
2022-08-30T09:50:05.401Z,24.00
2022-08-30T09:52:46.539Z,24.00
2022-08-30T09:55:41.848Z,24.00
2022-08-30T09:58:19.158Z,24.00
2022-08-30T10:00:53.619Z,24.00
2022-08-30T10:03:40.351Z,24.00
2022-08-30T10:06:16.651Z,24.00
2022-08-30T10:08:55.618Z,24.00
2022-08-30T10:11:29.902Z,24.00
2022-08-30T10:14:27.397Z,24.00
2022-08-30T10:17:04.484Z,24.00
2022-08-30T10:19:55.576Z,24.00
2022-08-30T10:22:31.369Z,24.00
2022-08-30T10:25:07.966Z,24.00
2022-08-30T10:27:41.473Z,24.00
2022-08-30T10:30:13.964Z,24.10
2022-08-30T10:33:06.734Z,24.00
2022-08-30T10:35:40.180Z,24.00
2022-08-30T10:38:13.350Z,24.10
2022-08-30T10:41:06.642Z,24.10
2022-08-30T10:43:45.572Z,24.10
2022-08-30T10:46:27.775Z,24.10
2022-08-30T10:48:57.362Z,24.10
2022-08-30T10:51:32.822Z,24.10
2022-08-30T10:54:10.807Z,24.10
2022-08-30T10:56:44.168Z,24.10
2022-08-30T10:59:12.999Z,24.10
2022-08-30T11:02:08.132Z,24.10
2022-08-30T11:04:54.526Z,24.10
2022-08-30T11:07:33.293Z,24.10
2022-08-30T11:10:24.962Z,24.10
2022-08-30T11:13:02.179Z,24.10
2022-08-30T11:15:35.574Z,24.10
2022-08-30T11:18:12.030Z,24.10
2022-08-30T11:20:44.422Z,24.10
2022-08-30T11:23:34.671Z,24.10
2022-08-30T11:26:05.339Z,24.10
2022-08-30T11:29:09.332Z,24.10
2022-08-30T11:31:42.861Z,24.00
2022-08-30T11:34:13.684Z,24.10
2022-08-30T11:37:09.733Z,24.10
2022-08-30T11:39:57.809Z,24.10
2022-08-30T11:42:42.618Z,24.10
2022-08-30T11:48:46.983Z,24.10
2022-08-30T11:52:28.304Z,24.10
2022-08-30T11:55:42.413Z,24.10
2022-08-30T11:58:33.939Z,24.10
2022-08-30T12:01:49.846Z,24.10
2022-08-30T12:04:38.945Z,24.10
2022-08-30T12:07:09.236Z,24.10
2022-08-30T12:10:07.061Z,24.10
2022-08-30T12:12:57.603Z,24.10
2022-08-30T12:15:43.949Z,24.10
2022-08-30T12:18:29.873Z,24.10
2022-08-30T12:21:11.436Z,24.10
2022-08-30T12:23:47.847Z,24.10
2022-08-30T12:26:21.038Z,24.10
2022-08-30T12:28:51.427Z,24.10
2022-08-30T12:31:22.461Z,24.10
2022-08-30T12:33:55.136Z,24.10
2022-08-30T12:36:39.654Z,24.10
2022-08-30T12:39:15.107Z,24.10
2022-08-30T12:41:44.596Z,24.20
2022-08-30T12:44:16.879Z,24.10
2022-08-30T12:46:49.732Z,24.20
2022-08-30T12:49:20.761Z,24.20
2022-08-30T12:51:51.020Z,24.20
2022-08-30T12:54:22.965Z,24.20
2022-08-30T12:57:19.253Z,24.20
2022-08-30T12:59:59.214Z,24.20
2022-08-30T13:02:42.987Z,24.20
2022-08-30T13:05:32.218Z,24.20
2022-08-30T13:08:31.220Z,24.20
2022-08-30T13:11:07.992Z,24.20
2022-08-30T13:13:40.594Z,24.20
2022-08-30T13:16:26.380Z,24.20
2022-08-30T13:18:56.540Z,24.30
2022-08-30T13:21:31.135Z,24.30
2022-08-30T13:24:04.087Z,24.30
2022-08-30T13:26:36.166Z,24.20
2022-08-30T13:29:10.416Z,24.30
2022-08-30T13:31:39.251Z,24.30
2022-08-30T13:34:07.822Z,24.30
2022-08-30T13:36:38.757Z,24.30
2022-08-30T13:39:14.907Z,24.30
2022-08-30T13:41:44.569Z,24.30
2022-08-30T13:44:14.198Z,24.30
2022-08-30T13:46:53.523Z,24.30
2022-08-30T13:52:21.463Z,24.30
2022-08-30T13:54:53.243Z,24.30
2022-08-30T14:00:17.781Z,24.40
2022-08-30T14:02:53.866Z,24.40
2022-08-30T14:11:03.331Z,24.30
2022-08-30T14:13:32.308Z,24.40
2022-08-30T14:18:51.350Z,24.40
2022-08-30T14:21:21.284Z,24.40
2022-08-30T14:23:52.727Z,24.40
2022-08-30T14:26:24.982Z,24.40
2022-08-30T14:28:54.668Z,24.40
2022-08-30T14:31:23.496Z,24.40
2022-08-30T14:33:52.105Z,24.50
2022-08-30T14:36:20.891Z,24.50
2022-08-30T14:38:49.711Z,24.50
2022-08-30T14:41:18.673Z,24.50
2022-08-30T14:43:48.457Z,24.50
2022-08-30T14:46:17.011Z,24.50
2022-08-30T14:48:46.976Z,24.50
2022-08-30T14:51:17.717Z,24.50
2022-08-30T14:53:46.746Z,24.50
2022-08-30T14:56:19.501Z,24.50
2022-08-30T14:58:51.855Z,24.50
2022-08-30T15:01:22.446Z,24.50
2022-08-30T15:03:51.183Z,24.50
2022-08-30T15:06:20.075Z,24.60
2022-08-30T15:08:49.105Z,24.60
2022-08-30T15:11:20.294Z,24.60
2022-08-30T15:13:52.978Z,24.60
2022-08-30T15:16:24.242Z,24.60
2022-08-30T15:18:53.339Z,24.60
2022-08-30T15:21:26.501Z,24.60
2022-08-30T15:23:55.569Z,24.60
2022-08-30T15:26:24.470Z,24.60
2022-08-30T15:28:54.883Z,24.60
2022-08-30T15:31:25.276Z,24.60
2022-08-30T15:33:53.841Z,24.70
2022-08-30T15:36:22.222Z,24.70
2022-08-30T15:38:50.763Z,24.70
2022-08-30T15:41:19.143Z,24.70
2022-08-30T15:43:47.834Z,24.70
2022-08-30T15:46:22.727Z,24.70
2022-08-30T15:48:52.977Z,24.70
2022-08-30T15:51:21.921Z,24.70
2022-08-30T15:53:53.620Z,24.70
2022-08-30T15:56:22.377Z,24.70
2022-08-30T15:58:52.938Z,24.70
2022-08-30T16:01:30.374Z,24.70
2022-08-30T16:03:59.670Z,24.70
2022-08-30T16:06:30.535Z,24.70
2022-08-30T16:09:00.469Z,24.80
2022-08-30T16:11:29.245Z,24.80
2022-08-30T16:13:59.057Z,24.80
2022-08-30T16:16:31.145Z,24.70
2022-08-30T16:19:00.036Z,24.80
2022-08-30T16:21:29.764Z,24.80
2022-08-30T16:24:01.078Z,24.80
2022-08-30T16:26:31.168Z,24.80
2022-08-30T16:29:00.294Z,24.80
2022-08-30T16:31:32.049Z,24.80
2022-08-30T16:34:02.323Z,24.90
2022-08-30T16:36:33.065Z,24.90
2022-08-30T16:39:01.792Z,24.90
2022-08-30T16:41:30.406Z,24.90
2022-08-30T16:44:01.582Z,24.90
2022-08-30T16:46:31.556Z,24.90
2022-08-30T16:49:03.426Z,24.90
2022-08-30T16:51:33.705Z,24.90
2022-08-30T16:54:04.418Z,24.90
2022-08-30T16:56:34.220Z,24.90
2022-08-30T16:59:03.539Z,24.90
2022-08-30T17:01:38.736Z,24.90
2022-08-30T17:04:08.820Z,24.90
2022-08-30T17:06:37.419Z,24.90
2022-08-30T17:09:06.318Z,24.90
2022-08-30T17:11:35.898Z,25.00
2022-08-30T17:14:04.524Z,25.00
2022-08-30T17:16:34.985Z,25.00
2022-08-30T17:19:08.590Z,25.00
2022-08-30T17:21:37.241Z,25.00
2022-08-30T17:24:07.603Z,25.00
2022-08-30T17:26:38.212Z,25.00
2022-08-30T17:29:07.770Z,25.00
2022-08-30T17:31:37.482Z,25.00
2022-08-30T17:34:07.486Z,25.00
2022-08-30T17:36:37.163Z,25.00
2022-08-30T17:39:11.129Z,25.00
2022-08-30T17:41:45.205Z,25.00
2022-08-30T17:44:19.259Z,25.10
2022-08-30T17:46:47.946Z,25.10
2022-08-30T17:49:17.949Z,25.10
2022-08-30T17:51:47.857Z,25.10
2022-08-30T17:54:16.914Z,25.10
2022-08-30T17:56:46.100Z,25.10
2022-08-30T17:59:15.744Z,25.10
2022-08-30T18:01:46.323Z,25.10
2022-08-30T18:04:19.758Z,25.10
2022-08-30T18:07:06.462Z,25.10
2022-08-30T18:09:35.006Z,25.10
2022-08-30T18:12:03.601Z,25.10
2022-08-30T18:14:32.098Z,25.10
2022-08-30T18:17:00.544Z,25.10
2022-08-30T18:19:33.213Z,25.20
2022-08-30T18:22:03.092Z,25.20
2022-08-30T18:24:32.000Z,25.20
2022-08-30T18:27:01.968Z,25.20
2022-08-30T18:29:32.147Z,25.20
2022-08-30T18:32:00.895Z,25.20
2022-08-30T18:34:29.660Z,25.20
2022-08-30T18:36:59.728Z,25.20
2022-08-30T18:39:34.458Z,25.20
2022-08-30T18:42:06.306Z,25.20
2022-08-30T18:44:35.031Z,25.20
2022-08-30T18:47:05.827Z,25.20
2022-08-30T18:49:35.770Z,25.20
2022-08-30T18:52:09.799Z,25.30
2022-08-30T18:54:43.168Z,25.30
2022-08-30T18:57:14.639Z,25.30
2022-08-30T18:59:43.183Z,25.20
2022-08-30T19:02:14.654Z,25.30
2022-08-30T19:04:45.128Z,25.20
2022-08-30T19:07:17.578Z,25.30
2022-08-30T19:09:49.496Z,25.30
2022-08-30T19:12:19.666Z,25.30
2022-08-30T19:14:49.484Z,25.30
2022-08-30T19:17:17.743Z,25.30
2022-08-30T19:19:49.408Z,25.30
2022-08-30T19:22:26.713Z,25.30
2022-08-30T19:24:58.817Z,25.30
2022-08-30T19:27:38.115Z,25.30
2022-08-30T19:30:11.154Z,25.30
2022-08-30T19:32:39.574Z,25.40
2022-08-30T19:35:09.691Z,25.30
2022-08-30T19:37:40.281Z,25.40
2022-08-30T19:40:11.904Z,25.40
2022-08-30T19:42:46.025Z,25.40
2022-08-30T19:45:17.773Z,25.40
2022-08-30T19:47:50.418Z,25.40
2022-08-30T19:50:19.116Z,25.40
2022-08-30T19:52:54.151Z,25.40
2022-08-30T19:55:28.481Z,25.40
2022-08-30T19:57:58.745Z,25.40
2022-08-30T20:00:27.173Z,25.40
2022-08-30T20:02:59.384Z,25.40
2022-08-30T20:05:27.916Z,25.40
2022-08-30T20:10:49.112Z,25.40
2022-08-30T20:13:23.968Z,25.40
2022-08-30T20:15:56.710Z,25.40
2022-08-30T20:18:26.603Z,25.40
2022-08-30T20:20:55.209Z,25.40
2022-08-30T20:23:25.800Z,25.50
2022-08-30T20:25:55.618Z,25.40
2022-08-30T20:28:24.645Z,25.40
2022-08-30T20:30:54.441Z,25.40
2022-08-30T20:33:24.444Z,25.40
2022-08-30T20:35:53.449Z,25.50
2022-08-30T20:38:22.581Z,25.40
2022-08-30T20:40:54.486Z,25.40
2022-08-30T20:43:25.566Z,25.50
2022-08-30T20:45:55.230Z,25.50
2022-08-30T20:48:24.890Z,25.50
2022-08-30T20:50:53.223Z,25.40
2022-08-30T20:53:21.580Z,25.50
2022-08-30T20:55:51.307Z,25.50
2022-08-30T20:58:19.878Z,25.50
2022-08-30T21:00:51.463Z,25.50
2022-08-30T21:03:28.044Z,25.50
2022-08-30T21:05:57.026Z,25.50
2022-08-30T21:08:25.386Z,25.50
2022-08-30T21:10:55.558Z,25.50
2022-08-30T21:13:24.166Z,25.50
2022-08-30T21:15:53.326Z,25.50
2022-08-30T21:18:23.519Z,25.50
2022-08-30T21:20:51.935Z,25.50
2022-08-30T21:23:20.266Z,25.50
2022-08-30T21:25:48.844Z,25.50
2022-08-30T21:28:18.955Z,25.60
2022-08-30T21:30:47.443Z,25.50
2022-08-30T21:33:15.853Z,25.50
2022-08-30T21:36:01.502Z,25.60
2022-08-30T21:38:30.363Z,25.50
2022-08-30T21:40:58.780Z,25.60
2022-08-30T21:43:28.586Z,25.60
2022-08-30T21:45:57.002Z,25.60
2022-08-30T21:48:25.411Z,25.50
2022-08-30T21:50:55.285Z,25.50
2022-08-30T21:53:23.642Z,25.50
2022-08-30T21:55:52.047Z,25.60
2022-08-30T21:58:20.388Z,25.60
2022-08-30T22:00:50.122Z,25.60
2022-08-30T22:03:18.633Z,25.60
2022-08-30T22:05:52.571Z,25.60
2022-08-30T22:08:20.922Z,25.60
2022-08-30T22:10:49.244Z,25.60
2022-08-30T22:13:17.763Z,25.60
2022-08-30T22:15:46.472Z,25.60
2022-08-30T22:18:16.423Z,25.60
2022-08-30T22:20:46.396Z,25.60
2022-08-30T22:23:15.833Z,25.60
2022-08-30T22:25:47.832Z,25.60
2022-08-30T22:28:16.259Z,25.60
2022-08-30T22:30:45.308Z,25.60
2022-08-30T22:33:15.722Z,25.60
2022-08-30T22:35:44.698Z,25.60
2022-08-30T22:38:14.073Z,25.60
2022-08-30T22:40:45.819Z,25.60
2022-08-30T22:43:14.328Z,25.60
2022-08-30T22:45:43.400Z,25.60
2022-08-30T22:48:12.407Z,25.60
2022-08-30T22:50:42.364Z,25.60
2022-08-30T22:53:10.782Z,25.60
2022-08-30T22:55:41.126Z,25.60
2022-08-30T22:58:09.708Z,25.60
2022-08-30T23:00:40.192Z,25.60
2022-08-30T23:03:11.320Z,25.60
2022-08-30T23:05:41.203Z,25.60
2022-08-30T23:08:09.717Z,25.60
2022-08-30T23:10:38.050Z,25.60
2022-08-30T23:13:06.401Z,25.60
2022-08-30T23:15:34.822Z,25.60
2022-08-30T23:18:03.225Z,25.60
2022-08-30T23:20:31.764Z,25.60
2022-08-30T23:23:00.574Z,25.60
2022-08-30T23:25:49.697Z,25.60
2022-08-30T23:28:39.777Z,25.60
2022-08-30T23:31:30.206Z,25.60
2022-08-30T23:34:16.356Z,25.60
2022-08-30T23:37:02.939Z,25.60
2022-08-30T23:39:50.075Z,25.60
2022-08-30T23:42:35.747Z,25.60
2022-08-30T23:45:21.302Z,25.60
2022-08-30T23:48:06.922Z,25.60
2022-08-30T23:50:52.761Z,25.60
2022-08-30T23:53:38.509Z,25.60
2022-08-30T23:56:30.970Z,25.60
2022-08-30T23:59:16.526Z,25.60
